No particular awareness of the weather is required.    There are no Weather-warnings


Meteo18 Weather Cam more information Meteo18 Weather Cam


Thunder radar more information blitzortung!


Rain radar more information rain snow radar


Visit our other weather sites:

Template documentation
and downloads

And another site



Weather Underground History page Text

Daily Summary for January 7, 2017 Units:  Both    English   Metric
« Previous Day
Next Day »
Daily Weekly Monthly Yearly Custom
  High: Low: Average:
Temperature: 32.7 °F /  0.4 °C 17.2 °F /  -8.2 °C 25.7 °F /  -3.5 °C
Dew Point: 30.2 °F /  -1.0 °C 15.3 °F /  -9.3 °C 22.1 °F /  -5.5 °C
Humidity: 95 % 69 % 86 %
Wind Speed: 6 mph /  9.7 km/h - 0.7 mph /  1.2 km/h
Wind Gust: 9 mph /  14.5 km/h - -
Wind:- - SW
Pressure: 30.6 in /  1037.1 hPa 30.5 in /  1033.7 hPa -
Precipitation: 0 in /  0.0 mm    
Historical Graphs
 
 
Tabular Data for January 7, 2017
Time Temperature Dew Point Pressure Wind Wind Speed Wind Gust Humidity Rainfall Rate (Hourly)
00:07 23.5 °F /  -4.7 °C 19.9 °F /  -6.7 °C 30.6 in /  1037.1 hPa NW 1 mph /  1.6 km/h 2 mph /  3.2 km/h 86 % 0 in /  0.0 mm
00:17 23.5 °F /  -4.7 °C 19.9 °F /  -6.7 °C 30.6 in /  1037.1 hPa NW 1 mph /  1.6 km/h 3 mph /  4.8 km/h 86 % 0 in /  0.0 mm
00:22 23.5 °F /  -4.7 °C 19.8 °F /  -6.8 °C 30.6 in /  1036.8 hPa Calm   3 mph /  4.8 km/h 85 % 0 in /  0.0 mm
00:27 23.4 °F /  -4.8 °C 19.8 °F /  -6.8 °C 30.6 in /  1036.8 hPa Calm   3 mph /  4.8 km/h 86 % 0 in /  0.0 mm
00:32 23.2 °F /  -4.9 °C 19.6 °F /  -6.9 °C 30.6 in /  1036.8 hPa NNE 1 mph /  1.6 km/h 2 mph /  3.2 km/h 86 % 0 in /  0.0 mm
00:37 23.2 °F /  -4.9 °C 19.6 °F /  -6.9 °C 30.6 in /  1036.8 hPa Calm   1 mph /  1.6 km/h 86 % 0 in /  0.0 mm
00:47 23.2 °F /  -4.9 °C 19.6 °F /  -6.9 °C 30.6 in /  1036.8 hPa Calm   1 mph /  1.6 km/h 86 % 0 in /  0.0 mm
00:52 23.2 °F /  -4.9 °C 19.6 °F /  -6.9 °C 30.6 in /  1036.8 hPa Calm   1 mph /  1.6 km/h 86 % 0 in /  0.0 mm
00:57 23.2 °F /  -4.9 °C 19.6 °F /  -6.9 °C 30.6 in /  1036.8 hPa North 1 mph /  1.6 km/h 2 mph /  3.2 km/h 86 % 0 in /  0.0 mm
01:02 23 °F /  -5.0 °C 19.4 °F /  -7.0 °C 30.6 in /  1036.8 hPa NNE 2 mph /  3.2 km/h 2 mph /  3.2 km/h 86 % 0 in /  0.0 mm
01:07 22.8 °F /  -5.1 °C 19.2 °F /  -7.1 °C 30.6 in /  1036.8 hPa Calm   2 mph /  3.2 km/h 86 % 0 in /  0.0 mm
01:12 22.5 °F /  -5.3 °C 19.2 °F /  -7.1 °C 30.6 in /  1036.8 hPa Calm   2 mph /  3.2 km/h 87 % 0 in /  0.0 mm
01:17 22.5 °F /  -5.3 °C 19.2 °F /  -7.1 °C 30.6 in /  1036.8 hPa Calm   2 mph /  3.2 km/h 87 % 0 in /  0.0 mm
01:22 22.5 °F /  -5.3 °C 19.2 °F /  -7.1 °C 30.6 in /  1036.8 hPa Calm   2 mph /  3.2 km/h 87 % 0 in /  0.0 mm
01:27 22.5 °F /  -5.3 °C 19.2 °F /  -7.1 °C 30.6 in /  1036.8 hPa Calm   1 mph /  1.6 km/h 87 % 0 in /  0.0 mm
01:32 22.3 °F /  -5.4 °C 18.7 °F /  -7.4 °C 30.6 in /  1036.5 hPa Calm   1 mph /  1.6 km/h 86 % 0 in /  0.0 mm
01:37 21.9 °F /  -5.6 °C 18.7 °F /  -7.4 °C 30.6 in /  1036.8 hPa Calm   1 mph /  1.6 km/h 87 % 0 in /  0.0 mm
01:42 21.9 °F /  -5.6 °C 18.7 °F /  -7.4 °C 30.6 in /  1036.5 hPa Calm   1 mph /  1.6 km/h 87 % 0 in /  0.0 mm
01:47 22.1 °F /  -5.5 °C 18.9 °F /  -7.3 °C 30.6 in /  1036.8 hPa Calm     87 % 0 in /  0.0 mm
01:52 21.9 °F /  -5.6 °C 18.7 °F /  -7.4 °C 30.6 in /  1036.8 hPa Calm     87 % 0 in /  0.0 mm
01:57 21.6 °F /  -5.8 °C 18.3 °F /  -7.6 °C 30.6 in /  1036.8 hPa Calm     87 % 0 in /  0.0 mm
02:02 21.6 °F /  -5.8 °C 18.5 °F /  -7.5 °C 30.6 in /  1036.8 hPa Calm     88 % 0 in /  0.0 mm
02:12 21.7 °F /  -5.7 °C 18.7 °F /  -7.4 °C 30.6 in /  1036.8 hPa Calm   1 mph /  1.6 km/h 88 % 0 in /  0.0 mm
02:17 21.9 °F /  -5.6 °C 18.7 °F /  -7.4 °C 30.6 in /  1036.8 hPa Calm   1 mph /  1.6 km/h 87 % 0 in /  0.0 mm
02:22 21.6 °F /  -5.8 °C 18.5 °F /  -7.5 °C 30.6 in /  1036.8 hPa Calm   1 mph /  1.6 km/h 88 % 0 in /  0.0 mm
02:27 21.6 °F /  -5.8 °C 18.5 °F /  -7.5 °C 30.6 in /  1036.8 hPa Calm   1 mph /  1.6 km/h 88 % 0 in /  0.0 mm
02:37 21.6 °F /  -5.8 °C 18.5 °F /  -7.5 °C 30.6 in /  1036.8 hPa Calm   1 mph /  1.6 km/h 88 % 0 in /  0.0 mm
02:42 21.7 °F /  -5.7 °C 18.7 °F /  -7.4 °C 30.6 in /  1036.5 hPa Calm   1 mph /  1.6 km/h 88 % 0 in /  0.0 mm
02:47 21.4 °F /  -5.9 °C 18.1 °F /  -7.7 °C 30.6 in /  1036.5 hPa Calm   1 mph /  1.6 km/h 87 % 0 in /  0.0 mm
02:52 21 °F /  -6.1 °C 18 °F /  -7.8 °C 30.6 in /  1036.5 hPa Calm   1 mph /  1.6 km/h 88 % 0 in /  0.0 mm
02:57 21 °F /  -6.1 °C 18.3 °F /  -7.6 °C 30.6 in /  1036.5 hPa Calm   1 mph /  1.6 km/h 89 % 0 in /  0.0 mm
03:02 21 °F /  -6.1 °C 18.3 °F /  -7.6 °C 30.6 in /  1036.8 hPa Calm   1 mph /  1.6 km/h 89 % 0 in /  0.0 mm
03:07 20.8 °F /  -6.2 °C 18.1 °F /  -7.7 °C 30.6 in /  1036.8 hPa Calm   1 mph /  1.6 km/h 89 % 0 in /  0.0 mm
03:12 20.8 °F /  -6.2 °C 18.1 °F /  -7.7 °C 30.6 in /  1036.8 hPa Calm     89 % 0 in /  0.0 mm
03:17 20.8 °F /  -6.2 °C 18.1 °F /  -7.7 °C 30.6 in /  1036.8 hPa Calm   1 mph /  1.6 km/h 89 % 0 in /  0.0 mm
03:22 20.8 °F /  -6.2 °C 18.1 °F /  -7.7 °C 30.6 in /  1036.8 hPa Calm   1 mph /  1.6 km/h 89 % 0 in /  0.0 mm
03:27 20.8 °F /  -6.2 °C 18.1 °F /  -7.7 °C 30.6 in /  1036.8 hPa Calm   1 mph /  1.6 km/h 89 % 0 in /  0.0 mm
03:32 20.8 °F /  -6.2 °C 18.1 °F /  -7.7 °C 30.6 in /  1036.5 hPa Calm   1 mph /  1.6 km/h 89 % 0 in /  0.0 mm
03:42 21 °F /  -6.1 °C 18.3 °F /  -7.6 °C 30.6 in /  1036.5 hPa Calm   1 mph /  1.6 km/h 89 % 0 in /  0.0 mm
03:47 21 °F /  -6.1 °C 18.3 °F /  -7.6 °C 30.6 in /  1036.5 hPa Calm   1 mph /  1.6 km/h 89 % 0 in /  0.0 mm
03:52 21 °F /  -6.1 °C 18 °F /  -7.8 °C 30.6 in /  1036.5 hPa Calm   1 mph /  1.6 km/h 88 % 0 in /  0.0 mm
03:57 20.8 °F /  -6.2 °C 17.8 °F /  -7.9 °C 30.6 in /  1036.5 hPa Calm     88 % 0 in /  0.0 mm
04:02 20.5 °F /  -6.4 °C 17.8 °F /  -7.9 °C 30.6 in /  1036.5 hPa Calm   1 mph /  1.6 km/h 89 % 0 in /  0.0 mm
04:07 20.1 °F /  -6.6 °C 17.4 °F /  -8.1 °C 30.6 in /  1036.5 hPa Calm   1 mph /  1.6 km/h 89 % 0 in /  0.0 mm
04:12 19.9 °F /  -6.7 °C 17.4 °F /  -8.1 °C 30.6 in /  1036.5 hPa Calm   1 mph /  1.6 km/h 90 % 0 in /  0.0 mm
04:17 19.8 °F /  -6.8 °C 17.2 °F /  -8.2 °C 30.6 in /  1036.5 hPa WNW 1 mph /  1.6 km/h 1 mph /  1.6 km/h 90 % 0 in /  0.0 mm
04:22 19.4 °F /  -7.0 °C 17.2 °F /  -8.2 °C 30.6 in /  1036.8 hPa Calm   1 mph /  1.6 km/h 91 % 0 in /  0.0 mm
04:27 19.6 °F /  -6.9 °C 17.4 °F /  -8.1 °C 30.6 in /  1036.8 hPa Calm   1 mph /  1.6 km/h 91 % 0 in /  0.0 mm
04:32 19.6 °F /  -6.9 °C 17.4 °F /  -8.1 °C 30.6 in /  1036.8 hPa Calm   1 mph /  1.6 km/h 91 % 0 in /  0.0 mm
04:37 19.8 °F /  -6.8 °C 17.2 °F /  -8.2 °C 30.6 in /  1036.5 hPa Calm     90 % 0 in /  0.0 mm
04:42 19.6 °F /  -6.9 °C 17.1 °F /  -8.3 °C 30.6 in /  1036.5 hPa Calm     90 % 0 in /  0.0 mm
04:47 19 °F /  -7.2 °C 16.5 °F /  -8.6 °C 30.6 in /  1036.5 hPa Calm     90 % 0 in /  0.0 mm
04:52 19.2 °F /  -7.1 °C 17.2 °F /  -8.2 °C 30.6 in /  1036.5 hPa Calm   1 mph /  1.6 km/h 92 % 0 in /  0.0 mm
05:02 19.4 °F /  -7.0 °C 17.2 °F /  -8.2 °C 30.6 in /  1036.5 hPa WNW 1 mph /  1.6 km/h 1 mph /  1.6 km/h 91 % 0 in /  0.0 mm
05:07 19 °F /  -7.2 °C 16.5 °F /  -8.6 °C 30.6 in /  1036.5 hPa Calm   1 mph /  1.6 km/h 90 % 0 in /  0.0 mm
05:12 18.5 °F /  -7.5 °C 16.3 °F /  -8.7 °C 30.6 in /  1036.5 hPa Calm   1 mph /  1.6 km/h 91 % 0 in /  0.0 mm
05:17 18.7 °F /  -7.4 °C 16.7 °F /  -8.5 °C 30.6 in /  1036.5 hPa Calm   1 mph /  1.6 km/h 92 % 0 in /  0.0 mm
05:22 19 °F /  -7.2 °C 17.1 °F /  -8.3 °C 30.6 in /  1036.5 hPa Calm     92 % 0 in /  0.0 mm
05:27 18.7 °F /  -7.4 °C 16.5 °F /  -8.6 °C 30.6 in /  1036.5 hPa Calm     91 % 0 in /  0.0 mm
05:32 18.9 °F /  -7.3 °C 16.9 °F /  -8.4 °C 30.6 in /  1036.5 hPa Calm     92 % 0 in /  0.0 mm
05:37 19 °F /  -7.2 °C 17.1 °F /  -8.3 °C 30.6 in /  1036.5 hPa Calm     92 % 0 in /  0.0 mm
05:42 19.2 °F /  -7.1 °C 17.2 °F /  -8.2 °C 30.6 in /  1036.5 hPa Calm     92 % 0 in /  0.0 mm
05:52 19.2 °F /  -7.1 °C 17.1 °F /  -8.3 °C 30.6 in /  1036.5 hPa Calm     91 % 0 in /  0.0 mm
05:57 19.2 °F /  -7.1 °C 17.1 °F /  -8.3 °C 30.6 in /  1036.5 hPa Calm     91 % 0 in /  0.0 mm
06:02 19 °F /  -7.2 °C 16.9 °F /  -8.4 °C 30.6 in /  1036.5 hPa Calm     91 % 0 in /  0.0 mm
06:07 19 °F /  -7.2 °C 17.1 °F /  -8.3 °C 30.6 in /  1036.5 hPa Calm     92 % 0 in /  0.0 mm
06:12 19 °F /  -7.2 °C 17.1 °F /  -8.3 °C 30.6 in /  1036.5 hPa Calm     92 % 0 in /  0.0 mm
06:17 18.9 °F /  -7.3 °C 16.9 °F /  -8.4 °C 30.6 in /  1036.5 hPa Calm     92 % 0 in /  0.0 mm
06:22 18.9 °F /  -7.3 °C 16.9 °F /  -8.4 °C 30.6 in /  1036.1 hPa Calm     92 % 0 in /  0.0 mm
06:32 18.5 °F /  -7.5 °C 16.5 °F /  -8.6 °C 30.6 in /  1036.5 hPa Calm     92 % 0 in /  0.0 mm
06:42 18.1 °F /  -7.7 °C 16.2 °F /  -8.8 °C 30.6 in /  1036.1 hPa Calm     92 % 0 in /  0.0 mm
06:47 17.8 °F /  -7.9 °C 15.8 °F /  -9.0 °C 30.6 in /  1036.1 hPa Calm     92 % 0 in /  0.0 mm
06:52 17.8 °F /  -7.9 °C 15.8 °F /  -9.0 °C 30.6 in /  1036.1 hPa Calm     92 % 0 in /  0.0 mm
07:02 17.8 °F /  -7.9 °C 16.2 °F /  -8.8 °C 30.6 in /  1036.5 hPa Calm     93 % 0 in /  0.0 mm
07:12 18.1 °F /  -7.7 °C 16.5 °F /  -8.6 °C 30.6 in /  1036.5 hPa Calm     93 % 0 in /  0.0 mm
07:17 18.3 °F /  -7.6 °C 16.7 °F /  -8.5 °C 30.6 in /  1036.5 hPa Calm     93 % 0 in /  0.0 mm
07:22 18.1 °F /  -7.7 °C 16.2 °F /  -8.8 °C 30.6 in /  1036.5 hPa Calm     92 % 0 in /  0.0 mm
07:27 18 °F /  -7.8 °C 16.3 °F /  -8.7 °C 30.6 in /  1036.5 hPa Calm     93 % 0 in /  0.0 mm
07:32 18.1 °F /  -7.7 °C 16.5 °F /  -8.6 °C 30.6 in /  1036.5 hPa Calm     93 % 0 in /  0.0 mm
07:37 18.1 °F /  -7.7 °C 16.5 °F /  -8.6 °C 30.6 in /  1036.5 hPa Calm     93 % 0 in /  0.0 mm
07:42 18 °F /  -7.8 °C 16 °F /  -8.9 °C 30.6 in /  1036.5 hPa Calm     92 % 0 in /  0.0 mm
07:47 18.1 °F /  -7.7 °C 16.5 °F /  -8.6 °C 30.6 in /  1036.5 hPa Calm     93 % 0 in /  0.0 mm
07:52 17.8 °F /  -7.9 °C 15.8 °F /  -9.0 °C 30.6 in /  1036.5 hPa Calm     92 % 0 in /  0.0 mm
07:57 17.6 °F /  -8.0 °C 15.6 °F /  -9.1 °C 30.6 in /  1036.5 hPa Calm     92 % 0 in /  0.0 mm
08:02 17.6 °F /  -8.0 °C 16 °F /  -8.9 °C 30.6 in /  1036.8 hPa Calm     93 % 0 in /  0.0 mm
08:07 17.8 °F /  -7.9 °C 16.2 °F /  -8.8 °C 30.6 in /  1036.5 hPa Calm     93 % 0 in /  0.0 mm
08:12 17.8 °F /  -7.9 °C 16.2 °F /  -8.8 °C 30.6 in /  1036.8 hPa North 1 mph /  1.6 km/h   93 % 0 in /  0.0 mm
08:17 18 °F /  -7.8 °C 16.3 °F /  -8.7 °C 30.6 in /  1036.8 hPa Calm   1 mph /  1.6 km/h 93 % 0 in /  0.0 mm
08:22 18.3 °F /  -7.6 °C 16.7 °F /  -8.5 °C 30.6 in /  1036.8 hPa Calm   1 mph /  1.6 km/h 93 % 0 in /  0.0 mm
08:27 18.1 °F /  -7.7 °C 16.2 °F /  -8.8 °C 30.6 in /  1036.8 hPa Calm   1 mph /  1.6 km/h 92 % 0 in /  0.0 mm
08:32 17.8 °F /  -7.9 °C 15.8 °F /  -9.0 °C 30.6 in /  1036.8 hPa Calm   1 mph /  1.6 km/h 92 % 0 in /  0.0 mm
08:37 17.4 °F /  -8.1 °C 15.4 °F /  -9.2 °C 30.6 in /  1036.8 hPa Calm   1 mph /  1.6 km/h 92 % 0 in /  0.0 mm
08:42 17.2 °F /  -8.2 °C 15.3 °F /  -9.3 °C 30.6 in /  1037.1 hPa Calm   1 mph /  1.6 km/h 92 % 0 in /  0.0 mm
08:47 17.4 °F /  -8.1 °C 15.8 °F /  -9.0 °C 30.6 in /  1037.1 hPa Calm     93 % 0 in /  0.0 mm
08:52 17.4 °F /  -8.1 °C 15.8 °F /  -9.0 °C 30.6 in /  1037.1 hPa Calm     93 % 0 in /  0.0 mm
08:57 17.4 °F /  -8.1 °C 15.8 °F /  -9.0 °C 30.6 in /  1036.8 hPa Calm     93 % 0 in /  0.0 mm
09:02 17.4 °F /  -8.1 °C 15.8 °F /  -9.0 °C 30.6 in /  1036.8 hPa Calm     93 % 0 in /  0.0 mm
09:07 17.6 °F /  -8.0 °C 16 °F /  -8.9 °C 30.6 in /  1036.8 hPa Calm     93 % 0 in /  0.0 mm
09:12 18 °F /  -7.8 °C 16.3 °F /  -8.7 °C 30.6 in /  1036.8 hPa Calm     93 % 0 in /  0.0 mm
09:17 18.7 °F /  -7.4 °C 17.1 °F /  -8.3 °C 30.6 in /  1036.8 hPa Calm     93 % 0 in /  0.0 mm
09:22 19.4 °F /  -7.0 °C 17.8 °F /  -7.9 °C 30.6 in /  1037.1 hPa Calm     93 % 0 in /  0.0 mm
09:32 19.8 °F /  -6.8 °C 17.8 °F /  -7.9 °C 30.6 in /  1037.1 hPa Calm     92 % 0 in /  0.0 mm
09:37 20.5 °F /  -6.4 °C 18.5 °F /  -7.5 °C 30.6 in /  1037.1 hPa Calm     92 % 0 in /  0.0 mm
09:42 21.6 °F /  -5.8 °C 19.6 °F /  -6.9 °C 30.6 in /  1037.1 hPa Calm     92 % 0 in /  0.0 mm
09:47 21.6 °F /  -5.8 °C 19 °F /  -7.2 °C 30.6 in /  1037.1 hPa Calm     90 % 0 in /  0.0 mm
09:52 22.1 °F /  -5.5 °C 19.6 °F /  -6.9 °C 30.6 in /  1037.1 hPa Calm     90 % 0 in /  0.0 mm
10:02 22.3 °F /  -5.4 °C 19 °F /  -7.2 °C 30.6 in /  1036.8 hPa Calm   1 mph /  1.6 km/h 87 % 0 in /  0.0 mm
10:07 21.9 °F /  -5.6 °C 18.9 °F /  -7.3 °C 30.6 in /  1036.8 hPa Calm   1 mph /  1.6 km/h 88 % 0 in /  0.0 mm
10:12 22.3 °F /  -5.4 °C 19.6 °F /  -6.9 °C 30.6 in /  1036.8 hPa Calm   1 mph /  1.6 km/h 89 % 0 in /  0.0 mm
10:17 22.8 °F /  -5.1 °C 20.3 °F /  -6.5 °C 30.6 in /  1036.8 hPa Calm   1 mph /  1.6 km/h 90 % 0 in /  0.0 mm
10:27 24.8 °F /  -4.0 °C 21.2 °F /  -6.0 °C 30.6 in /  1036.8 hPa Calm     86 % 0 in /  0.0 mm
10:32 25.3 °F /  -3.7 °C 21.4 °F /  -5.9 °C 30.6 in /  1037.1 hPa Calm     85 % 0 in /  0.0 mm
10:37 26.2 °F /  -3.2 °C 22.6 °F /  -5.2 °C 30.6 in /  1037.1 hPa Calm     86 % 0 in /  0.0 mm
10:42 26.4 °F /  -3.1 °C 22.3 °F /  -5.4 °C 30.6 in /  1036.8 hPa Calm     84 % 0 in /  0.0 mm
10:52 27.3 °F /  -2.6 °C 22.6 °F /  -5.2 °C 30.6 in /  1037.1 hPa Calm     82 % 0 in /  0.0 mm
10:57 27.3 °F /  -2.6 °C 21.9 °F /  -5.6 °C 30.6 in /  1037.1 hPa Calm     80 % 0 in /  0.0 mm
11:02 26.4 °F /  -3.1 °C 21.4 °F /  -5.9 °C 30.6 in /  1037.1 hPa Calm   1 mph /  1.6 km/h 81 % 0 in /  0.0 mm
11:12 26.4 °F /  -3.1 °C 21.7 °F /  -5.7 °C 30.6 in /  1036.8 hPa Calm   1 mph /  1.6 km/h 82 % 0 in /  0.0 mm
11:22 26.8 °F /  -2.9 °C 22.8 °F /  -5.1 °C 30.6 in /  1036.8 hPa Calm   2 mph /  3.2 km/h 85 % 0 in /  0.0 mm
11:27 27 °F /  -2.8 °C 23 °F /  -5.0 °C 30.6 in /  1036.5 hPa Calm   2 mph /  3.2 km/h 85 % 0 in /  0.0 mm
11:37 27.3 °F /  -2.6 °C 22.8 °F /  -5.1 °C 30.6 in /  1036.5 hPa SSE 1 mph /  1.6 km/h 2 mph /  3.2 km/h 83 % 0 in /  0.0 mm
11:42 27.7 °F /  -2.4 °C 23.2 °F /  -4.9 °C 30.6 in /  1036.5 hPa South 3 mph /  4.8 km/h 3 mph /  4.8 km/h 83 % 0 in /  0.0 mm
11:47 27.9 °F /  -2.3 °C 23 °F /  -5.0 °C 30.6 in /  1036.5 hPa South 2 mph /  3.2 km/h 4 mph /  6.4 km/h 82 % 0 in /  0.0 mm
11:57 28 °F /  -2.2 °C 23.2 °F /  -4.9 °C 30.6 in /  1036.5 hPa Calm   4 mph /  6.4 km/h 82 % 0 in /  0.0 mm
12:02 28.6 °F /  -1.9 °C 23.7 °F /  -4.6 °C 30.6 in /  1036.5 hPa SSW 1 mph /  1.6 km/h 3 mph /  4.8 km/h 82 % 0 in /  0.0 mm
12:07 28.9 °F /  -1.7 °C 23.9 °F /  -4.5 °C 30.6 in /  1036.5 hPa Calm   3 mph /  4.8 km/h 81 % 0 in /  0.0 mm
12:17 28.9 °F /  -1.7 °C 23.5 °F /  -4.7 °C 30.6 in /  1036.5 hPa SSE 1 mph /  1.6 km/h 2 mph /  3.2 km/h 80 % 0 in /  0.0 mm
12:22 28.8 °F /  -1.8 °C 23 °F /  -5.0 °C 30.6 in /  1036.5 hPa SW 1 mph /  1.6 km/h 4 mph /  6.4 km/h 79 % 0 in /  0.0 mm
12:27 28.8 °F /  -1.8 °C 23.7 °F /  -4.6 °C 30.6 in /  1036.5 hPa SW 1 mph /  1.6 km/h 4 mph /  6.4 km/h 81 % 0 in /  0.0 mm
12:37 28.9 °F /  -1.7 °C 23.5 °F /  -4.7 °C 30.6 in /  1036.5 hPa South 1 mph /  1.6 km/h 3 mph /  4.8 km/h 80 % 0 in /  0.0 mm
12:47 29.7 °F /  -1.3 °C 24.3 °F /  -4.3 °C 30.6 in /  1036.5 hPa SSW 1 mph /  1.6 km/h 3 mph /  4.8 km/h 80 % 0 in /  0.0 mm
12:57 29.8 °F /  -1.2 °C 23.5 °F /  -4.7 °C 30.6 in /  1035.8 hPa SSW 3 mph /  4.8 km/h 4 mph /  6.4 km/h 77 % 0 in /  0.0 mm
13:02 30.2 °F /  -1.0 °C 23.9 °F /  -4.5 °C 30.6 in /  1035.8 hPa SSW 3 mph /  4.8 km/h 4 mph /  6.4 km/h 77 % 0 in /  0.0 mm
13:07 30.2 °F /  -1.0 °C 23.9 °F /  -4.5 °C 30.6 in /  1035.8 hPa SW 4 mph /  6.4 km/h 4 mph /  6.4 km/h 77 % 0 in /  0.0 mm
13:12 30.4 °F /  -0.9 °C 24.1 °F /  -4.4 °C 30.6 in /  1035.8 hPa SSW 2 mph /  3.2 km/h 4 mph /  6.4 km/h 77 % 0 in /  0.0 mm
13:17 30.4 °F /  -0.9 °C 23.7 °F /  -4.6 °C 30.6 in /  1036.1 hPa SSW 1 mph /  1.6 km/h 4 mph /  6.4 km/h 76 % 0 in /  0.0 mm
13:27 30.9 °F /  -0.6 °C 24.3 °F /  -4.3 °C 30.6 in /  1035.8 hPa SSW 1 mph /  1.6 km/h 3 mph /  4.8 km/h 76 % 0 in /  0.0 mm
13:32 30.9 °F /  -0.6 °C 24.3 °F /  -4.3 °C 30.6 in /  1035.4 hPa SSW 2 mph /  3.2 km/h 3 mph /  4.8 km/h 76 % 0 in /  0.0 mm
13:37 31.3 °F /  -0.4 °C 25 °F /  -3.9 °C 30.6 in /  1035.4 hPa SSE 1 mph /  1.6 km/h 3 mph /  4.8 km/h 77 % 0 in /  0.0 mm
13:42 31.3 °F /  -0.4 °C 24.6 °F /  -4.1 °C 30.6 in /  1035.8 hPa SSE 3 mph /  4.8 km/h 3 mph /  4.8 km/h 76 % 0 in /  0.0 mm
13:47 31.3 °F /  -0.4 °C 24.3 °F /  -4.3 °C 30.6 in /  1035.4 hPa SSE 2 mph /  3.2 km/h 3 mph /  4.8 km/h 75 % 0 in /  0.0 mm
13:52 31.3 °F /  -0.4 °C 23.9 °F /  -4.5 °C 30.6 in /  1035.4 hPa SSE 1 mph /  1.6 km/h 4 mph /  6.4 km/h 74 % 0 in /  0.0 mm
13:57 31.6 °F /  -0.2 °C 23.7 °F /  -4.6 °C 30.6 in /  1035.8 hPa South 2 mph /  3.2 km/h 4 mph /  6.4 km/h 72 % 0 in /  0.0 mm
14:02 31.8 °F /  -0.1 °C 23.9 °F /  -4.5 °C 30.6 in /  1035.4 hPa SW 2 mph /  3.2 km/h 4 mph /  6.4 km/h 72 % 0 in /  0.0 mm
14:07 31.6 °F /  -0.2 °C 22.6 °F /  -5.2 °C 30.6 in /  1035.8 hPa Calm   3 mph /  4.8 km/h 69 % 0 in /  0.0 mm
14:12 31.8 °F /  -0.1 °C 23.2 °F /  -4.9 °C 30.6 in /  1035.4 hPa Calm   3 mph /  4.8 km/h 70 % 0 in /  0.0 mm
14:17 31.8 °F /  -0.1 °C 23.2 °F /  -4.9 °C 30.6 in /  1035.4 hPa SW 1 mph /  1.6 km/h 3 mph /  4.8 km/h 70 % 0 in /  0.0 mm
14:22 32.2 °F /  0.1 °C 23.5 °F /  -4.7 °C 30.6 in /  1035.4 hPa SSW 1 mph /  1.6 km/h 2 mph /  3.2 km/h 70 % 0 in /  0.0 mm
14:32 32 °F /  0.0 °C 24.1 °F /  -4.4 °C 30.6 in /  1035.4 hPa SW 2 mph /  3.2 km/h 3 mph /  4.8 km/h 72 % 0 in /  0.0 mm
14:37 32.2 °F /  0.1 °C 24.3 °F /  -4.3 °C 30.6 in /  1035.4 hPa SSE 1 mph /  1.6 km/h 4 mph /  6.4 km/h 72 % 0 in /  0.0 mm
14:42 32.2 °F /  0.1 °C 24.3 °F /  -4.3 °C 30.6 in /  1035.1 hPa SSE 1 mph /  1.6 km/h 4 mph /  6.4 km/h 72 % 0 in /  0.0 mm
14:47 32.2 °F /  0.1 °C 24.3 °F /  -4.3 °C 30.6 in /  1035.1 hPa SW 2 mph /  3.2 km/h 4 mph /  6.4 km/h 72 % 0 in /  0.0 mm
14:57 32.4 °F /  0.2 °C 25 °F /  -3.9 °C 30.6 in /  1035.1 hPa SW 2 mph /  3.2 km/h 5 mph /  8.0 km/h 74 % 0 in /  0.0 mm
15:02 32.4 °F /  0.2 °C 24.3 °F /  -4.3 °C 30.6 in /  1035.1 hPa SSW 1 mph /  1.6 km/h 5 mph /  8.0 km/h 72 % 0 in /  0.0 mm
15:07 32.4 °F /  0.2 °C 24.1 °F /  -4.4 °C 30.6 in /  1034.8 hPa SSW 2 mph /  3.2 km/h 5 mph /  8.0 km/h 71 % 0 in /  0.0 mm
15:12 32.4 °F /  0.2 °C 24.1 °F /  -4.4 °C 30.6 in /  1034.8 hPa South 3 mph /  4.8 km/h 5 mph /  8.0 km/h 71 % 0 in /  0.0 mm
15:22 32.4 °F /  0.2 °C 24.6 °F /  -4.1 °C 30.6 in /  1034.8 hPa SW 4 mph /  6.4 km/h 5 mph /  8.0 km/h 73 % 0 in /  0.0 mm
15:52 32.5 °F /  0.3 °C 25.9 °F /  -3.4 °C 30.6 in /  1035.1 hPa Calm   2 mph /  3.2 km/h 76 % 0 in /  0.0 mm
15:57 32.7 °F /  0.4 °C 26.2 °F /  -3.2 °C 30.6 in /  1035.1 hPa SSW 1 mph /  1.6 km/h 2 mph /  3.2 km/h 77 % 0 in /  0.0 mm
16:02 32.5 °F /  0.3 °C 25.5 °F /  -3.6 °C 30.6 in /  1035.1 hPa SSW 2 mph /  3.2 km/h 2 mph /  3.2 km/h 75 % 0 in /  0.0 mm
16:07 32.5 °F /  0.3 °C 25.2 °F /  -3.8 °C 30.6 in /  1035.1 hPa South 2 mph /  3.2 km/h 2 mph /  3.2 km/h 74 % 0 in /  0.0 mm
16:12 32.5 °F /  0.3 °C 25.9 °F /  -3.4 °C 30.6 in /  1035.1 hPa South 1 mph /  1.6 km/h 3 mph /  4.8 km/h 76 % 0 in /  0.0 mm
16:22 32.5 °F /  0.3 °C 25.9 °F /  -3.4 °C 30.6 in /  1035.1 hPa SSW 2 mph /  3.2 km/h 3 mph /  4.8 km/h 76 % 0 in /  0.0 mm
16:27 32.5 °F /  0.3 °C 25.5 °F /  -3.6 °C 30.6 in /  1035.1 hPa SSW 1 mph /  1.6 km/h 3 mph /  4.8 km/h 75 % 0 in /  0.0 mm
16:37 32.5 °F /  0.3 °C 25.9 °F /  -3.4 °C 30.6 in /  1035.1 hPa SSW 3 mph /  4.8 km/h 3 mph /  4.8 km/h 76 % 0 in /  0.0 mm
16:42 32.5 °F /  0.3 °C 25.5 °F /  -3.6 °C 30.6 in /  1034.8 hPa SW 3 mph /  4.8 km/h 4 mph /  6.4 km/h 75 % 0 in /  0.0 mm
16:52 32.5 °F /  0.3 °C 25.9 °F /  -3.4 °C 30.6 in /  1035.1 hPa SSW 2 mph /  3.2 km/h 4 mph /  6.4 km/h 76 % 0 in /  0.0 mm
16:57 32.4 °F /  0.2 °C 25.3 °F /  -3.7 °C 30.6 in /  1035.1 hPa SSW 2 mph /  3.2 km/h 4 mph /  6.4 km/h 75 % 0 in /  0.0 mm
17:02 32.4 °F /  0.2 °C 25.9 °F /  -3.4 °C 30.6 in /  1035.1 hPa South 1 mph /  1.6 km/h 4 mph /  6.4 km/h 77 % 0 in /  0.0 mm
17:07 32.4 °F /  0.2 °C 25.9 °F /  -3.4 °C 30.6 in /  1034.8 hPa SSW 1 mph /  1.6 km/h 4 mph /  6.4 km/h 77 % 0 in /  0.0 mm
17:12 32.2 °F /  0.1 °C 26.4 °F /  -3.1 °C 30.6 in /  1034.8 hPa SW 1 mph /  1.6 km/h 4 mph /  6.4 km/h 79 % 0 in /  0.0 mm
17:17 32.2 °F /  0.1 °C 26.4 °F /  -3.1 °C 30.6 in /  1035.1 hPa Calm   4 mph /  6.4 km/h 79 % 0 in /  0.0 mm
17:22 32 °F /  0.0 °C 26.8 °F /  -2.9 °C 30.6 in /  1034.8 hPa Calm   3 mph /  4.8 km/h 81 % 0 in /  0.0 mm
17:27 32 °F /  0.0 °C 27.1 °F /  -2.7 °C 30.6 in /  1034.8 hPa Calm   3 mph /  4.8 km/h 82 % 0 in /  0.0 mm
17:37 31.8 °F /  -0.1 °C 27 °F /  -2.8 °C 30.6 in /  1035.1 hPa Calm   1 mph /  1.6 km/h 82 % 0 in /  0.0 mm
17:47 31.8 °F /  -0.1 °C 27.3 °F /  -2.6 °C 30.6 in /  1035.1 hPa Calm   1 mph /  1.6 km/h 83 % 0 in /  0.0 mm
17:52 31.8 °F /  -0.1 °C 27 °F /  -2.8 °C 30.6 in /  1034.8 hPa Calm   1 mph /  1.6 km/h 82 % 0 in /  0.0 mm
18:02 31.8 °F /  -0.1 °C 26.6 °F /  -3.0 °C 30.6 in /  1034.8 hPa Calm   1 mph /  1.6 km/h 81 % 0 in /  0.0 mm
18:07 32 °F /  0.0 °C 26.8 °F /  -2.9 °C 30.6 in /  1034.8 hPa Calm   1 mph /  1.6 km/h 81 % 0 in /  0.0 mm
18:12 32 °F /  0.0 °C 27.1 °F /  -2.7 °C 30.6 in /  1034.8 hPa Calm   1 mph /  1.6 km/h 82 % 0 in /  0.0 mm
18:22 32.4 °F /  0.2 °C 28.6 °F /  -1.9 °C 30.6 in /  1034.8 hPa West 2 mph /  3.2 km/h 5 mph /  8.0 km/h 86 % 0 in /  0.0 mm
18:32 32.2 °F /  0.1 °C 28.8 °F /  -1.8 °C 30.6 in /  1034.8 hPa WSW 2 mph /  3.2 km/h 7 mph /  11.3 km/h 87 % 0 in /  0.0 mm
18:42 31.5 °F /  -0.3 °C 28.9 °F /  -1.7 °C 30.6 in /  1034.8 hPa SW 2 mph /  3.2 km/h 7 mph /  11.3 km/h 90 % 0 in /  0.0 mm
18:47 31.3 °F /  -0.4 °C 29.3 °F /  -1.5 °C 30.6 in /  1034.8 hPa West 3 mph /  4.8 km/h 5 mph /  8.0 km/h 92 % 0 in /  0.0 mm
18:57 31.1 °F /  -0.5 °C 29.3 °F /  -1.5 °C 30.6 in /  1034.8 hPa West 1 mph /  1.6 km/h 5 mph /  8.0 km/h 93 % 0 in /  0.0 mm
19:07 30.9 °F /  -0.6 °C 29.1 °F /  -1.6 °C 30.6 in /  1034.8 hPa West 1 mph /  1.6 km/h 4 mph /  6.4 km/h 93 % 0 in /  0.0 mm
19:12 30.9 °F /  -0.6 °C 29.1 °F /  -1.6 °C 30.6 in /  1034.8 hPa Calm   5 mph /  8.0 km/h 93 % 0 in /  0.0 mm
19:22 30.7 °F /  -0.7 °C 28.9 °F /  -1.7 °C 30.6 in /  1034.8 hPa WSW 1 mph /  1.6 km/h 4 mph /  6.4 km/h 93 % 0 in /  0.0 mm
19:27 30.7 °F /  -0.7 °C 28.9 °F /  -1.7 °C 30.6 in /  1034.8 hPa West 2 mph /  3.2 km/h 4 mph /  6.4 km/h 93 % 0 in /  0.0 mm
19:32 30.9 °F /  -0.6 °C 29.1 °F /  -1.6 °C 30.6 in /  1034.8 hPa WSW 1 mph /  1.6 km/h 4 mph /  6.4 km/h 93 % 0 in /  0.0 mm
19:37 30.9 °F /  -0.6 °C 29.1 °F /  -1.6 °C 30.6 in /  1034.8 hPa WSW 1 mph /  1.6 km/h 4 mph /  6.4 km/h 93 % 0 in /  0.0 mm
19:42 30.9 °F /  -0.6 °C 28.9 °F /  -1.7 °C 30.6 in /  1034.8 hPa SW 2 mph /  3.2 km/h 3 mph /  4.8 km/h 92 % 0 in /  0.0 mm
19:47 30.9 °F /  -0.6 °C 28.9 °F /  -1.7 °C 30.6 in /  1034.8 hPa WSW 1 mph /  1.6 km/h 3 mph /  4.8 km/h 92 % 0 in /  0.0 mm
19:57 30.9 °F /  -0.6 °C 28.4 °F /  -2.0 °C 30.6 in /  1034.8 hPa SSW 2 mph /  3.2 km/h 5 mph /  8.0 km/h 90 % 0 in /  0.0 mm
20:07 31.3 °F /  -0.4 °C 28.4 °F /  -2.0 °C 30.6 in /  1034.8 hPa SW 1 mph /  1.6 km/h 4 mph /  6.4 km/h 89 % 0 in /  0.0 mm
20:12 31.3 °F /  -0.4 °C 28.2 °F /  -2.1 °C 30.6 in /  1034.8 hPa SW 1 mph /  1.6 km/h 4 mph /  6.4 km/h 88 % 0 in /  0.0 mm
20:17 31.3 °F /  -0.4 °C 28.2 °F /  -2.1 °C 30.6 in /  1034.8 hPa SW 2 mph /  3.2 km/h 4 mph /  6.4 km/h 88 % 0 in /  0.0 mm
20:22 31.3 °F /  -0.4 °C 27.9 °F /  -2.3 °C 30.6 in /  1034.8 hPa SSW 1 mph /  1.6 km/h 3 mph /  4.8 km/h 87 % 0 in /  0.0 mm
20:27 31.5 °F /  -0.3 °C 28 °F /  -2.2 °C 30.6 in /  1034.8 hPa SW 1 mph /  1.6 km/h 3 mph /  4.8 km/h 87 % 0 in /  0.0 mm
20:37 31.6 °F /  -0.2 °C 27.9 °F /  -2.3 °C 30.6 in /  1034.8 hPa WSW 6 mph /  9.7 km/h 6 mph /  9.7 km/h 86 % 0 in /  0.0 mm
20:47 31.8 °F /  -0.1 °C 28 °F /  -2.2 °C 30.6 in /  1034.8 hPa SW 2 mph /  3.2 km/h 7 mph /  11.3 km/h 86 % 0 in /  0.0 mm
20:52 31.6 °F /  -0.2 °C 28.2 °F /  -2.1 °C 30.6 in /  1034.8 hPa SW 2 mph /  3.2 km/h 7 mph /  11.3 km/h 87 % 0 in /  0.0 mm
21:02 31.6 °F /  -0.2 °C 28.2 °F /  -2.1 °C 30.6 in /  1034.8 hPa WSW 4 mph /  6.4 km/h 7 mph /  11.3 km/h 87 % 0 in /  0.0 mm
21:12 31.6 °F /  -0.2 °C 28.2 °F /  -2.1 °C 30.5 in /  1034.4 hPa WSW 2 mph /  3.2 km/h 9 mph /  14.5 km/h 87 % 0 in /  0.0 mm
21:17 31.6 °F /  -0.2 °C 28.2 °F /  -2.1 °C 30.5 in /  1034.4 hPa West 6 mph /  9.7 km/h 8 mph /  12.9 km/h 87 % 0 in /  0.0 mm
21:22 31.6 °F /  -0.2 °C 28.8 °F /  -1.8 °C 30.5 in /  1034.4 hPa WSW 4 mph /  6.4 km/h 8 mph /  12.9 km/h 89 % 0 in /  0.0 mm
21:27 31.6 °F /  -0.2 °C 29.1 °F /  -1.6 °C 30.5 in /  1034.4 hPa WSW 1 mph /  1.6 km/h 7 mph /  11.3 km/h 90 % 0 in /  0.0 mm
21:32 31.5 °F /  -0.3 °C 29.1 °F /  -1.6 °C 30.5 in /  1034.4 hPa Calm   6 mph /  9.7 km/h 91 % 0 in /  0.0 mm
21:37 31.5 °F /  -0.3 °C 29.1 °F /  -1.6 °C 30.5 in /  1034.4 hPa SW 2 mph /  3.2 km/h 5 mph /  8.0 km/h 91 % 0 in /  0.0 mm
21:42 31.5 °F /  -0.3 °C 29.1 °F /  -1.6 °C 30.5 in /  1034.4 hPa Calm   4 mph /  6.4 km/h 91 % 0 in /  0.0 mm
21:47 31.5 °F /  -0.3 °C 29.5 °F /  -1.4 °C 30.5 in /  1034.4 hPa Calm   6 mph /  9.7 km/h 92 % 0 in /  0.0 mm
21:52 31.5 °F /  -0.3 °C 29.5 °F /  -1.4 °C 30.5 in /  1034.4 hPa West 2 mph /  3.2 km/h 6 mph /  9.7 km/h 92 % 0 in /  0.0 mm
21:57 31.6 °F /  -0.2 °C 29.3 °F /  -1.5 °C 30.5 in /  1034.4 hPa West 3 mph /  4.8 km/h 6 mph /  9.7 km/h 91 % 0 in /  0.0 mm
22:07 31.6 °F /  -0.2 °C 29.3 °F /  -1.5 °C 30.5 in /  1034.4 hPa WSW 2 mph /  3.2 km/h 5 mph /  8.0 km/h 91 % 0 in /  0.0 mm
22:12 31.6 °F /  -0.2 °C 29.1 °F /  -1.6 °C 30.5 in /  1034.4 hPa Calm   5 mph /  8.0 km/h 90 % 0 in /  0.0 mm
22:17 31.6 °F /  -0.2 °C 29.1 °F /  -1.6 °C 30.5 in /  1034.4 hPa WSW 2 mph /  3.2 km/h 4 mph /  6.4 km/h 90 % 0 in /  0.0 mm
22:22 31.6 °F /  -0.2 °C 29.1 °F /  -1.6 °C 30.5 in /  1034.4 hPa SW 1 mph /  1.6 km/h 5 mph /  8.0 km/h 90 % 0 in /  0.0 mm
22:32 31.5 °F /  -0.3 °C 28.9 °F /  -1.7 °C 30.5 in /  1034.4 hPa Calm   5 mph /  8.0 km/h 90 % 0 in /  0.0 mm
22:37 31.5 °F /  -0.3 °C 29.1 °F /  -1.6 °C 30.5 in /  1034.4 hPa West 1 mph /  1.6 km/h 3 mph /  4.8 km/h 91 % 0 in /  0.0 mm
22:47 31.3 °F /  -0.4 °C 29.3 °F /  -1.5 °C 30.5 in /  1034.4 hPa WSW 1 mph /  1.6 km/h 4 mph /  6.4 km/h 92 % 0 in /  0.0 mm
22:52 31.3 °F /  -0.4 °C 29.5 °F /  -1.4 °C 30.5 in /  1034.4 hPa WSW 3 mph /  4.8 km/h 4 mph /  6.4 km/h 93 % 0 in /  0.0 mm
22:57 31.1 °F /  -0.5 °C 29.3 °F /  -1.5 °C 30.5 in /  1034.4 hPa WSW 1 mph /  1.6 km/h 6 mph /  9.7 km/h 93 % 0 in /  0.0 mm
23:07 30.9 °F /  -0.6 °C 29.5 °F /  -1.4 °C 30.5 in /  1033.7 hPa SSW 4 mph /  6.4 km/h 6 mph /  9.7 km/h 94 % 0 in /  0.0 mm
23:12 30.9 °F /  -0.6 °C 29.7 °F /  -1.3 °C 30.5 in /  1034.1 hPa WSW 2 mph /  3.2 km/h 6 mph /  9.7 km/h 95 % 0 in /  0.0 mm
23:17 30.9 °F /  -0.6 °C 29.7 °F /  -1.3 °C 30.5 in /  1034.1 hPa WSW 2 mph /  3.2 km/h 6 mph /  9.7 km/h 95 % 0 in /  0.0 mm
23:27 30.9 °F /  -0.6 °C 29.7 °F /  -1.3 °C 30.5 in /  1034.1 hPa Calm   5 mph /  8.0 km/h 95 % 0 in /  0.0 mm
23:32 31.1 °F /  -0.5 °C 29.8 °F /  -1.2 °C 30.5 in /  1034.1 hPa WSW 1 mph /  1.6 km/h 3 mph /  4.8 km/h 95 % 0 in /  0.0 mm
23:37 31.3 °F /  -0.4 °C 30 °F /  -1.1 °C 30.5 in /  1034.1 hPa Calm   3 mph /  4.8 km/h 95 % 0 in /  0.0 mm
23:42 31.3 °F /  -0.4 °C 30 °F /  -1.1 °C 30.5 in /  1034.1 hPa SW 2 mph /  3.2 km/h 3 mph /  4.8 km/h 95 % 0 in /  0.0 mm
23:52 31.5 °F /  -0.3 °C 30.2 °F /  -1.0 °C 30.5 in /  1034.1 hPa Calm   2 mph /  3.2 km/h 95 % 0 in /  0.0 mm
Meteo18
Compliments of Weather Underground - 4 mb

Script developed by  Jim McMurry - jmcmurry@mwt.net Adapted for the template by  Wim van der Kuil - Leuven-Template.eu

You find our weather info also at:

European Weather Network

Weather Underground

Equipment we use:

Weather-station
Davis Vue

Weather-program
Meteohub

Weather-server
Raspberry PI 2 B+

Provider
1 and 1

Davis Vue

Meteohub

Raspberry PI 2 B+

1 and 1